createdAt,value
2023-03-14T00:01:02.354Z,4.3
2023-03-14T00:03:30.617Z,4.3
2023-03-14T00:05:58.875Z,3.7
2023-03-14T00:08:27.122Z,3.9
2023-03-14T00:10:55.385Z,3.7
2023-03-14T00:13:23.642Z,3.9
2023-03-14T00:15:51.902Z,3.6
2023-03-14T00:17:06.630Z,3.7
2023-03-14T00:18:20.170Z,4.4
2023-03-14T00:20:48.432Z,4
2023-03-14T00:23:16.689Z,3.8
2023-03-14T00:25:44.971Z,4.6
2023-03-14T00:28:13.207Z,4.4
2023-03-14T00:33:09.421Z,4
2023-03-14T00:35:37.675Z,4.7
2023-03-14T00:38:05.940Z,4.2
2023-03-14T00:40:34.190Z,3.9
2023-03-14T00:41:48.929Z,4
2023-03-14T00:43:02.470Z,3.8
2023-03-14T00:45:30.726Z,4.1
2023-03-14T00:47:58.982Z,4.1
2023-03-14T00:50:27.244Z,4.4
2023-03-14T00:52:55.496Z,3.7
2023-03-14T00:55:23.757Z,3.2
2023-03-14T00:57:52.013Z,3.5
2023-03-14T01:00:20.269Z,3.7
2023-03-14T01:05:16.777Z,4
2023-03-14T01:06:31.515Z,3.9
2023-03-14T01:07:45.063Z,3.6
2023-03-14T01:10:13.315Z,3.9
2023-03-14T01:12:41.573Z,3.5
2023-03-14T01:15:09.829Z,3.7
2023-03-14T01:17:38.084Z,3.9
2023-03-14T01:20:06.339Z,4.3
2023-03-14T01:22:34.605Z,3.9
2023-03-14T01:25:02.855Z,4.2
2023-03-14T01:27:31.119Z,3.8
2023-03-14T01:29:59.374Z,4
2023-03-14T01:31:14.101Z,4.4
2023-03-14T01:34:56.144Z,4.5
2023-03-14T01:37:24.393Z,4
2023-03-14T01:39:52.655Z,3.7
2023-03-14T01:42:20.913Z,3.9
2023-03-14T01:44:49.169Z,3.9
2023-03-14T01:47:17.425Z,3.9
2023-03-14T01:49:45.677Z,4.2
2023-03-14T01:52:13.940Z,3.2
2023-03-14T01:54:42.194Z,3.6
2023-03-14T01:55:56.930Z,3.7
2023-03-14T01:57:10.472Z,3.5
2023-03-14T01:59:38.728Z,3.8
2023-03-14T02:02:06.980Z,3.7
2023-03-14T02:07:03.495Z,4.1
2023-03-14T02:09:31.752Z,3.7
2023-03-14T02:12:00.011Z,3.8
2023-03-14T02:14:28.273Z,4.1
2023-03-14T02:16:56.522Z,3.6
2023-03-14T02:19:24.784Z,4
2023-03-14T02:20:39.518Z,3.8
2023-03-14T02:21:53.059Z,3.7
2023-03-14T02:24:21.319Z,3.9
2023-03-14T02:26:49.571Z,3.8
2023-03-14T02:29:17.830Z,3.5
2023-03-14T02:31:46.088Z,3.2
2023-03-14T02:34:14.344Z,3.3
2023-03-14T02:39:10.857Z,3.3
2023-03-14T02:41:39.116Z,3.5
2023-03-14T02:44:07.372Z,4.3
2023-03-14T02:45:22.106Z,3.5
2023-03-14T02:46:35.646Z,3.5
2023-03-14T02:49:03.899Z,3.4
2023-03-14T02:51:32.157Z,3.7
2023-03-14T02:54:00.412Z,4.3
2023-03-14T02:56:28.668Z,3.5
2023-03-14T02:58:56.930Z,3.6
2023-03-14T03:01:25.184Z,3.8
2023-03-14T03:03:53.440Z,3.6
2023-03-14T03:06:21.701Z,3.7
2023-03-14T03:10:04.686Z,3.9
2023-03-14T03:11:18.239Z,3.5
2023-03-14T03:13:46.488Z,3.8
2023-03-14T03:16:14.749Z,4
2023-03-14T03:18:43.008Z,3.7
2023-03-14T03:21:11.264Z,4.1
2023-03-14T03:23:39.519Z,4.3
2023-03-14T03:26:07.780Z,4.2
2023-03-14T03:28:36.036Z,4
2023-03-14T03:31:04.286Z,4.2
2023-03-14T03:33:32.544Z,4.4
2023-03-14T03:34:47.284Z,3.7
2023-03-14T03:36:00.820Z,4.2
2023-03-14T03:40:57.333Z,4.5
2023-03-14T03:43:25.598Z,4.1
2023-03-14T03:45:53.855Z,3.9
2023-03-14T03:48:22.105Z,4.1
2023-03-14T03:50:50.368Z,4.7
2023-03-14T03:53:18.623Z,4.3
2023-03-14T03:55:46.883Z,3.9
2023-03-14T03:58:15.133Z,4.2
2023-03-14T03:59:29.866Z,4.8
2023-03-14T04:00:43.412Z,4.3
2023-03-14T04:03:11.666Z,4.1
2023-03-14T04:05:39.923Z,4.7
2023-03-14T04:08:08.189Z,4.8
2023-03-14T04:13:04.695Z,4.1
2023-03-14T04:15:32.951Z,4.2
2023-03-14T04:18:01.215Z,4.2
2023-03-14T04:20:29.472Z,3.9
2023-03-14T04:22:57.730Z,4.3
2023-03-14T04:24:12.454Z,4.1
2023-03-14T04:25:26.007Z,4.5
2023-03-14T04:27:54.257Z,4.1
2023-03-14T04:30:22.520Z,3.5
2023-03-14T04:32:50.771Z,4
2023-03-14T04:35:19.028Z,4.6
2023-03-14T04:37:47.281Z,5
2023-03-14T04:40:15.540Z,5.6
2023-03-14T04:45:12.058Z,4.7
2023-03-14T04:47:40.311Z,3.1
2023-03-14T04:48:55.046Z,1.7
2023-03-14T04:50:08.591Z,1.7
2023-03-14T04:52:36.851Z,1.6
2023-03-14T04:55:05.107Z,1.8
2023-03-14T04:57:33.359Z,2
2023-03-14T05:00:01.618Z,2.1
2023-03-14T05:02:29.881Z,1.8
2023-03-14T05:04:58.128Z,2
2023-03-14T05:07:26.385Z,2.2
2023-03-14T05:09:54.647Z,2
2023-03-14T05:12:22.899Z,2.2
2023-03-14T05:14:51.161Z,1.8
2023-03-14T05:17:19.415Z,1.7
2023-03-14T05:19:47.674Z,1.8
2023-03-14T05:22:15.927Z,2
2023-03-14T05:24:44.189Z,2.1
2023-03-14T05:27:12.444Z,2.1
2023-03-14T05:29:40.698Z,2
2023-03-14T05:32:08.954Z,1.9
2023-03-14T05:34:37.207Z,2
2023-03-14T05:37:05.471Z,2.1
2023-03-14T05:38:20.221Z,2.1
2023-03-14T05:39:33.765Z,1.9
2023-03-14T05:42:02.017Z,1.6
2023-03-14T05:46:58.531Z,2
2023-03-14T05:49:26.792Z,2.1
2023-03-14T05:51:55.048Z,3.8
2023-03-14T05:54:23.298Z,3.1
2023-03-14T05:56:51.562Z,4.2
2023-03-14T05:59:19.814Z,3
2023-03-14T06:01:48.074Z,2.7
2023-03-14T06:03:02.803Z,2.4
2023-03-14T06:04:16.359Z,2.4
2023-03-14T06:06:44.603Z,2.4
2023-03-14T06:09:12.864Z,2.7
2023-03-14T06:11:41.119Z,2.7
2023-03-14T06:14:09.376Z,2.8
2023-03-14T06:19:05.887Z,2.8
2023-03-14T06:21:34.147Z,2.9
2023-03-14T06:24:02.403Z,3.3
2023-03-14T06:26:30.658Z,3.6
2023-03-14T06:27:45.388Z,3.5
2023-03-14T06:28:58.938Z,3.6
2023-03-14T06:31:27.196Z,3.4
2023-03-14T06:33:55.446Z,3.9
2023-03-14T06:36:23.703Z,3.9
2023-03-14T06:38:51.957Z,3.6
2023-03-14T06:41:20.213Z,3.6
2023-03-14T06:43:48.471Z,3.6
2023-03-14T06:46:16.725Z,3.1
2023-03-14T06:51:13.239Z,3.1
2023-03-14T06:52:27.971Z,2.7
2023-03-14T06:53:41.522Z,2.8
2023-03-14T06:56:09.774Z,3.2
2023-03-14T06:58:38.038Z,3
2023-03-14T07:01:06.287Z,3
2023-03-14T07:03:34.549Z,3
2023-03-14T07:06:02.797Z,2.9
2023-03-14T07:08:31.054Z,3.1
2023-03-14T07:10:59.314Z,3.2
2023-03-14T07:13:27.570Z,3.1
2023-03-14T07:15:55.830Z,3.6
2023-03-14T07:17:10.559Z,3.7
2023-03-14T07:20:52.595Z,4.2
2023-03-14T07:23:20.851Z,3.7
2023-03-14T07:25:49.111Z,3.7
2023-03-14T07:28:17.363Z,3.8
2023-03-14T07:30:45.619Z,3.7
2023-03-14T07:33:13.874Z,3.8
2023-03-14T07:35:42.136Z,4.2
2023-03-14T07:38:10.388Z,4
2023-03-14T07:40:38.643Z,4.7
2023-03-14T07:41:53.380Z,4.8
2023-03-14T07:43:06.927Z,4.8
2023-03-14T07:45:35.176Z,5.1
2023-03-14T07:48:03.435Z,5.1
2023-03-14T07:52:59.945Z,5.1
2023-03-14T07:55:28.206Z,5.3
2023-03-14T07:57:56.461Z,4.7
2023-03-14T08:00:24.721Z,4.4
2023-03-14T08:02:52.975Z,4.2
2023-03-14T08:05:21.237Z,4.1
2023-03-14T08:06:35.969Z,4.2
2023-03-14T08:07:49.513Z,4.2
2023-03-14T08:10:17.764Z,3.8
2023-03-14T08:12:46.023Z,3.9
2023-03-14T08:15:14.280Z,3.7
2023-03-14T08:17:42.534Z,3.5
2023-03-14T08:20:10.788Z,3.2
2023-03-14T08:25:07.308Z,4
2023-03-14T08:27:35.564Z,4.7
2023-03-14T08:30:03.818Z,3.3
2023-03-14T08:31:18.550Z,3.3
2023-03-14T08:32:32.091Z,4.2
2023-03-14T08:35:00.356Z,4.4
2023-03-14T08:37:28.613Z,3.7
2023-03-14T08:39:56.861Z,4.4
2023-03-14T08:42:25.123Z,3.9
2023-03-14T08:44:53.381Z,3.7
2023-03-14T08:47:21.636Z,3.7
2023-03-14T08:49:49.888Z,3.9
2023-03-14T08:52:18.150Z,4.2
2023-03-14T08:56:01.138Z,4
2023-03-14T08:57:14.688Z,3.9
2023-03-14T08:59:42.938Z,4.1
2023-03-14T09:02:11.202Z,3.8
2023-03-14T09:04:39.450Z,3.8
2023-03-14T09:07:07.716Z,4
2023-03-14T09:09:35.969Z,3.7
2023-03-14T09:12:04.222Z,3.4
2023-03-14T09:14:32.486Z,4.1
2023-03-14T09:17:00.742Z,5
2023-03-14T09:19:28.993Z,4.6
2023-03-14T09:20:43.729Z,5.7
2023-03-14T09:21:57.270Z,10.6
2023-03-14T09:26:53.791Z,7.2
2023-03-14T09:29:22.048Z,4.3
2023-03-14T09:31:50.306Z,4.3
2023-03-14T09:34:18.560Z,4.9
2023-03-14T09:36:46.821Z,4.1
2023-03-14T09:39:15.077Z,3.5
2023-03-14T09:41:43.326Z,3.4
2023-03-14T09:44:11.588Z,1.7
2023-03-14T09:45:26.319Z,1.9
2023-03-14T09:46:39.863Z,1.4
2023-03-14T09:49:08.118Z,1.5
2023-03-14T09:51:36.380Z,1.7
2023-03-14T09:54:04.632Z,1.4
2023-03-14T09:59:01.144Z,1.1
2023-03-14T10:01:29.399Z,1.3
2023-03-14T10:03:57.664Z,0.7
2023-03-14T10:06:25.915Z,0.9
2023-03-14T10:08:54.177Z,0.9
2023-03-14T10:10:08.908Z,0.9
2023-03-14T10:11:22.445Z,1
2023-03-14T10:13:50.708Z,0.8
2023-03-14T10:16:18.968Z,0.7
2023-03-14T10:18:47.219Z,1.1
2023-03-14T10:21:15.477Z,0.8
2023-03-14T10:23:43.737Z,0.7
2023-03-14T10:26:11.997Z,0.9
2023-03-14T10:31:08.511Z,0.9
2023-03-14T10:33:36.764Z,0.7
2023-03-14T10:34:51.496Z,0.8
2023-03-14T10:36:05.036Z,0.8
2023-03-14T10:38:33.296Z,0.7
2023-03-14T10:41:01.548Z,0.7
2023-03-14T10:43:29.805Z,0.8
2023-03-14T10:45:58.067Z,0.8
2023-03-14T10:48:26.323Z,0.8
2023-03-14T10:50:54.581Z,0.8
2023-03-14T10:53:22.830Z,0.9
2023-03-14T10:55:51.092Z,0.7
2023-03-14T10:58:19.344Z,0.7
2023-03-14T11:00:47.610Z,0.7
2023-03-14T11:03:15.860Z,0.8
2023-03-14T11:05:44.120Z,1
2023-03-14T11:08:12.374Z,0.6
2023-03-14T11:10:40.628Z,0.7
2023-03-14T11:13:08.892Z,1
2023-03-14T11:15:37.144Z,0.6
2023-03-14T11:18:05.404Z,0.8
2023-03-14T11:20:33.656Z,0.6
2023-03-14T11:23:01.919Z,1
2023-03-14T11:24:16.667Z,1.1
2023-03-14T11:25:30.210Z,1.1
2023-03-14T11:27:58.471Z,1.1
2023-03-14T11:32:54.983Z,1
2023-03-14T11:35:23.237Z,1.1
2023-03-14T11:37:51.493Z,1.1
2023-03-14T11:40:19.751Z,1.6
2023-03-14T11:42:48.010Z,1.8
2023-03-14T11:45:16.260Z,1.3
2023-03-14T11:47:44.523Z,1.6
2023-03-14T11:48:59.256Z,1.6
2023-03-14T11:50:12.794Z,1.8
2023-03-14T11:52:41.052Z,1.8
2023-03-14T11:55:09.314Z,2
2023-03-14T11:57:37.567Z,2
2023-03-14T12:00:05.825Z,2
2023-03-14T12:05:02.336Z,1.7
2023-03-14T12:07:30.592Z,2.2
2023-03-14T12:09:58.848Z,2.2
2023-03-14T12:12:27.103Z,2.1
2023-03-14T12:13:41.842Z,2.1
2023-03-14T12:14:55.387Z,2
2023-03-14T12:17:23.641Z,2
2023-03-14T12:19:51.899Z,2.1
2023-03-14T12:22:20.157Z,2.8
2023-03-14T12:24:48.415Z,2.1
2023-03-14T12:27:16.670Z,2.7
2023-03-14T12:29:44.919Z,2.4
2023-03-14T12:32:13.178Z,2.8
2023-03-14T12:37:09.693Z,3
2023-03-14T12:38:24.425Z,2.2
2023-03-14T12:39:37.970Z,2.4
2023-03-14T12:42:06.227Z,2.6
2023-03-14T12:44:34.483Z,2.2
2023-03-14T12:47:02.738Z,3.2
2023-03-14T12:49:31.000Z,2.5
2023-03-14T12:51:59.254Z,2.9
2023-03-14T12:54:27.512Z,2.6
2023-03-14T12:56:55.773Z,2.8
2023-03-14T12:59:24.024Z,3.6
2023-03-14T13:01:52.284Z,3
2023-03-14T13:03:07.014Z,3.5
2023-03-14T13:06:49.045Z,3.5
2023-03-14T13:09:17.308Z,3.1
2023-03-14T13:11:45.558Z,3.8
2023-03-14T13:14:13.819Z,3.5
2023-03-14T13:16:42.074Z,3.9
2023-03-14T13:19:10.329Z,4.3
2023-03-14T13:21:38.588Z,3.4
2023-03-14T13:24:06.842Z,3.1
2023-03-14T13:26:35.108Z,3
2023-03-14T13:27:49.838Z,3
2023-03-14T13:29:03.384Z,3
2023-03-14T13:31:31.638Z,3.3
2023-03-14T13:33:59.893Z,2.9
2023-03-14T13:38:56.403Z,2.5
2023-03-14T13:41:24.665Z,2.4
2023-03-14T13:43:52.921Z,2.4
2023-03-14T13:46:21.176Z,2.4
2023-03-14T13:48:49.437Z,3.1
2023-03-14T13:51:17.685Z,2.7
2023-03-14T13:52:32.423Z,2.6
2023-03-14T13:53:45.964Z,2.9
2023-03-14T13:56:14.221Z,2.3
2023-03-14T13:58:42.482Z,2.8
2023-03-14T14:01:10.741Z,2.5
2023-03-14T14:03:38.989Z,2.1
2023-03-14T14:06:07.251Z,2.3
2023-03-14T14:11:03.765Z,2
2023-03-14T14:13:32.023Z,2.1
2023-03-14T14:16:00.279Z,1.9
2023-03-14T14:17:15.014Z,2.1
2023-03-14T14:18:28.556Z,2.4
2023-03-14T14:20:56.812Z,2.7
2023-03-14T14:23:25.066Z,2.4
2023-03-14T14:25:53.327Z,2.2
2023-03-14T14:28:21.580Z,2.8
2023-03-14T14:30:49.838Z,2.6
2023-03-14T14:33:18.093Z,2.9
2023-03-14T14:35:46.345Z,2.3
2023-03-14T14:38:14.607Z,2.5
2023-03-14T14:41:57.595Z,1.9
2023-03-14T14:43:11.133Z,2.4
2023-03-14T14:45:39.398Z,2.6
2023-03-14T14:48:07.654Z,2.4
2023-03-14T14:50:35.908Z,2.3
2023-03-14T14:53:04.166Z,2.5
2023-03-14T14:55:32.418Z,2.1
2023-03-14T14:58:00.672Z,1.7
2023-03-14T15:00:28.937Z,2
2023-03-14T15:02:57.186Z,1.9
2023-03-14T15:05:25.446Z,2.1
2023-03-14T15:06:40.181Z,2.5
2023-03-14T15:07:53.721Z,2.2
2023-03-14T15:12:50.241Z,2
2023-03-14T15:15:18.496Z,2.7
2023-03-14T15:17:46.747Z,2.3
2023-03-14T15:20:15.008Z,2.7
2023-03-14T15:22:43.265Z,2.7
2023-03-14T15:25:11.525Z,2.5
2023-03-14T15:27:39.780Z,2.7
2023-03-14T15:30:08.036Z,2.4
2023-03-14T15:31:22.764Z,3.4
2023-03-14T15:32:36.311Z,2.2
2023-03-14T15:35:04.569Z,2.9
2023-03-14T15:37:32.819Z,2.7
2023-03-14T15:40:01.079Z,2.6
2023-03-14T15:44:57.596Z,2.2
2023-03-14T15:47:25.849Z,2.4
2023-03-14T15:49:54.154Z,2.2
2023-03-14T15:52:22.364Z,2.1
2023-03-14T15:54:50.619Z,2.5
2023-03-14T15:56:05.358Z,2.3
2023-03-14T15:57:18.897Z,2.3
2023-03-14T15:59:47.156Z,2.6
2023-03-14T16:02:15.408Z,2.1
2023-03-14T16:04:43.664Z,2.1
2023-03-14T16:07:11.926Z,2.2
2023-03-14T16:09:40.182Z,3
2023-03-14T16:12:08.436Z,2.8
2023-03-14T16:17:04.952Z,2.7
2023-03-14T16:19:33.211Z,2.9
2023-03-14T16:20:47.941Z,3
2023-03-14T16:22:01.487Z,3
2023-03-14T16:24:29.739Z,3.6
2023-03-14T16:26:58.001Z,3.2
2023-03-14T16:29:26.255Z,3.3
2023-03-14T16:31:54.509Z,2.9
2023-03-14T16:34:22.769Z,3.3
2023-03-14T16:36:51.030Z,2.8
2023-03-14T16:39:19.282Z,3
2023-03-14T16:41:47.537Z,3.4
2023-03-14T16:44:15.797Z,3.9
2023-03-14T16:46:44.054Z,3
2023-03-14T16:49:12.314Z,3.1
2023-03-14T16:51:40.572Z,2.8
2023-03-14T16:54:08.829Z,2.9
2023-03-14T16:56:37.089Z,3.1
2023-03-14T16:59:05.343Z,3
2023-03-14T17:01:33.598Z,3
2023-03-14T17:04:01.858Z,3.3
2023-03-14T17:06:30.111Z,2.9
2023-03-14T17:08:58.369Z,2.7
2023-03-14T17:10:13.123Z,2.7
2023-03-14T17:11:26.663Z,3.1
2023-03-14T17:13:54.924Z,3.1
2023-03-14T17:18:51.438Z,3.3
2023-03-14T17:21:19.689Z,3
2023-03-14T17:23:47.950Z,3
2023-03-14T17:26:16.210Z,2.2
2023-03-14T17:28:44.463Z,3.2
2023-03-14T17:31:12.721Z,2.9
2023-03-14T17:33:40.979Z,2.1
2023-03-14T17:34:55.708Z,2.1
2023-03-14T17:36:09.255Z,1.9
2023-03-14T17:38:37.512Z,2.2
2023-03-14T17:41:05.765Z,2.3
2023-03-14T17:43:34.021Z,2.7
2023-03-14T17:46:02.284Z,2.6
2023-03-14T17:50:58.801Z,2.4
2023-03-14T17:53:27.051Z,2.5
2023-03-14T17:55:55.313Z,3.1
2023-03-14T17:58:23.567Z,2.7
2023-03-14T17:59:38.304Z,2.7
2023-03-14T18:00:51.845Z,3.1
2023-03-14T18:03:20.100Z,3
2023-03-14T18:05:48.366Z,2.5
2023-03-14T18:08:16.620Z,3.7
2023-03-14T18:10:44.879Z,4.7
2023-03-14T18:13:13.136Z,3.9
2023-03-14T18:15:41.388Z,3.8
2023-03-14T18:18:09.644Z,5.8
2023-03-14T18:23:06.161Z,4.6
2023-03-14T18:24:20.898Z,3.5
2023-03-14T18:25:34.443Z,3.1
2023-03-14T18:28:02.695Z,3.6
2023-03-14T18:30:30.955Z,3.2
2023-03-14T18:32:59.210Z,3.3
2023-03-14T18:35:27.468Z,5
2023-03-14T18:37:55.730Z,4.8
2023-03-14T18:40:23.988Z,4
2023-03-14T18:42:52.239Z,3.7
2023-03-14T18:45:20.502Z,3.1
2023-03-14T18:47:48.757Z,3.6
2023-03-14T18:49:03.487Z,3.3
2023-03-14T18:52:45.522Z,2.9
2023-03-14T18:55:13.775Z,3.4
2023-03-14T18:57:42.041Z,3.8
2023-03-14T19:00:10.289Z,3.6
2023-03-14T19:02:38.547Z,3.2
2023-03-14T19:05:06.810Z,2.5
2023-03-14T19:07:35.066Z,3.2
2023-03-14T19:10:03.324Z,3.3
2023-03-14T19:12:31.581Z,3
2023-03-14T19:13:46.313Z,2.5
2023-03-14T19:14:59.862Z,2.7
2023-03-14T19:17:28.116Z,3.7
2023-03-14T19:19:56.370Z,2.7
2023-03-14T19:24:52.885Z,3.2
2023-03-14T19:27:21.143Z,3.4
2023-03-14T19:29:49.404Z,2.9
2023-03-14T19:32:17.654Z,2.8
2023-03-14T19:34:45.912Z,3.3
2023-03-14T19:37:14.172Z,3
2023-03-14T19:38:28.902Z,3
2023-03-14T19:39:42.454Z,2.9
2023-03-14T19:42:10.706Z,2.7
2023-03-14T19:44:38.959Z,2.9
2023-03-14T19:47:07.219Z,2.6
2023-03-14T19:49:35.473Z,2.8
2023-03-14T19:52:03.730Z,2.9
2023-03-14T19:57:00.250Z,2.4
2023-03-14T19:59:28.508Z,2.5
2023-03-14T20:01:56.767Z,2.7
2023-03-14T20:03:11.498Z,2.3
2023-03-14T20:04:25.044Z,2.6
2023-03-14T20:06:53.295Z,2.5
2023-03-14T20:09:21.553Z,3
2023-03-14T20:11:49.809Z,2.6
2023-03-14T20:14:18.072Z,2.8
2023-03-14T20:16:46.324Z,3
2023-03-14T20:19:14.586Z,2.4
2023-03-14T20:21:42.838Z,3.2
2023-03-14T20:24:11.096Z,3
2023-03-14T20:27:54.085Z,2.7
2023-03-14T20:29:07.629Z,3.1
2023-03-14T20:31:35.882Z,3.2
2023-03-14T20:34:04.150Z,3.3
2023-03-14T20:36:32.411Z,3.1
2023-03-14T20:39:00.668Z,3
2023-03-14T20:41:28.926Z,3.2
2023-03-14T20:43:57.182Z,2.9
2023-03-14T20:46:25.441Z,2.4
2023-03-14T20:48:53.693Z,2.1
2023-03-14T20:51:21.950Z,2.1
2023-03-14T20:52:36.685Z,1.8
2023-03-14T20:53:50.229Z,2
2023-03-14T20:58:46.741Z,1.9
2023-03-14T21:01:15.001Z,2
2023-03-14T21:03:43.261Z,2
2023-03-14T21:06:11.511Z,2.3
2023-03-14T21:08:39.772Z,2.1
2023-03-14T21:11:08.034Z,2.1
2023-03-14T21:13:36.284Z,1.6
2023-03-14T21:16:04.543Z,2
2023-03-14T21:17:19.278Z,1.5
2023-03-14T21:18:32.823Z,1.6
2023-03-14T21:21:01.077Z,1.4
2023-03-14T21:23:29.332Z,1.5
2023-03-14T21:25:57.596Z,1.1
2023-03-14T21:30:54.109Z,1.8
2023-03-14T21:33:22.347Z,1.7
2023-03-14T21:35:50.604Z,1.6
2023-03-14T21:38:18.870Z,1.7
2023-03-14T21:40:47.127Z,1.6
2023-03-14T21:42:01.856Z,1.5
2023-03-14T21:43:15.397Z,1.7
2023-03-14T21:45:43.652Z,1.7
2023-03-14T21:48:11.912Z,1.6
2023-03-14T21:50:40.170Z,1.8
2023-03-14T21:53:08.430Z,1.7
2023-03-14T21:55:36.687Z,1.6
2023-03-14T21:58:04.940Z,1.6
2023-03-14T22:03:01.456Z,1.7
2023-03-14T22:05:29.719Z,2
2023-03-14T22:06:44.444Z,1.9
2023-03-14T22:07:57.987Z,1.6
2023-03-14T22:10:26.245Z,1.8
2023-03-14T22:12:54.511Z,1.4
2023-03-14T22:15:22.768Z,1.3
2023-03-14T22:17:51.025Z,1.9
2023-03-14T22:20:19.280Z,1.8
2023-03-14T22:22:47.533Z,1.8
2023-03-14T22:25:15.792Z,1.6
2023-03-14T22:27:44.048Z,1.6
2023-03-14T22:30:12.310Z,1.9
2023-03-14T22:32:40.567Z,1.5
2023-03-14T22:35:08.820Z,1.8
2023-03-14T22:37:37.076Z,1.8
2023-03-14T22:40:05.337Z,2.4
2023-03-14T22:42:33.592Z,2.1
2023-03-14T22:45:01.856Z,1.8
2023-03-14T22:47:30.109Z,2.4
2023-03-14T22:49:58.370Z,2
2023-03-14T22:52:26.625Z,2.3
2023-03-14T22:54:54.884Z,2.1
2023-03-14T22:56:09.635Z,2.2
2023-03-14T22:57:23.172Z,2.3
2023-03-14T22:59:51.431Z,3.3
2023-03-14T23:04:47.947Z,2.4
2023-03-14T23:07:16.206Z,2.5
2023-03-14T23:09:44.461Z,2.8
2023-03-14T23:12:12.718Z,2.7
2023-03-14T23:14:40.979Z,3.1
2023-03-14T23:17:09.235Z,2.7
2023-03-14T23:19:37.497Z,2.5
2023-03-14T23:20:52.223Z,2.7
2023-03-14T23:22:05.769Z,2.8
2023-03-14T23:24:34.033Z,2.6
2023-03-14T23:27:02.286Z,2
2023-03-14T23:29:30.542Z,1.9
2023-03-14T23:31:58.802Z,1.8
2023-03-14T23:36:55.316Z,1.6
2023-03-14T23:39:23.570Z,1.7
2023-03-14T23:41:51.832Z,2.7
2023-03-14T23:44:20.089Z,2
2023-03-14T23:45:34.816Z,2
2023-03-14T23:46:48.360Z,1.8
2023-03-14T23:49:16.617Z,1.9
2023-03-14T23:51:44.876Z,1.7
2023-03-14T23:54:13.140Z,2.4
2023-03-14T23:56:41.392Z,2.7
2023-03-14T23:59:09.654Z,2.8
